createdAt,value
2023-03-22T00:02:11.514Z,8.60
2023-03-22T00:04:38.174Z,8.23
2023-03-22T00:07:18.473Z,9.45
2023-03-22T00:09:51.609Z,10.23
2023-03-22T00:12:25.422Z,9.30
2023-03-22T00:14:58.507Z,8.27
2023-03-22T00:17:26.168Z,10.48
2023-03-22T00:20:01.485Z,8.27
2023-03-22T00:22:28.049Z,7.80
2023-03-22T00:25:01.446Z,10.35
2023-03-22T00:27:28.000Z,7.53
2023-03-22T00:30:01.463Z,8.00
2023-03-22T00:32:28.163Z,9.38
2023-03-22T00:35:01.522Z,7.80
2023-03-22T00:37:40.463Z,8.30
2023-03-22T00:40:18.520Z,11.20
2023-03-22T00:42:51.506Z,9.15
2023-03-22T00:45:24.526Z,9.70
2023-03-22T00:47:51.335Z,12.82
2023-03-22T00:50:24.452Z,10.57
2023-03-22T00:52:51.245Z,10.95
2023-03-22T00:55:24.468Z,9.32
2023-03-22T00:57:57.441Z,7.55
2023-03-22T01:00:24.352Z,10.68
2023-03-22T01:02:59.540Z,8.82
2023-03-22T01:05:28.363Z,10.65
2023-03-22T01:08:01.547Z,9.57
2023-03-22T01:10:42.533Z,9.45
2023-03-22T01:13:18.063Z,8.18
2023-03-22T01:15:51.595Z,7.70
2023-03-22T01:18:25.440Z,6.90
2023-03-22T01:20:52.220Z,9.10
2023-03-22T01:23:25.464Z,9.10
2023-03-22T01:25:52.215Z,9.70
2023-03-22T01:28:18.805Z,8.55
2023-03-22T01:30:51.652Z,8.88
2023-03-22T01:33:18.426Z,8.85
2023-03-22T01:35:51.621Z,8.23
2023-03-22T01:38:18.319Z,7.35
2023-03-22T01:40:51.603Z,11.55
2023-03-22T01:43:24.532Z,6.75
2023-03-22T01:45:52.833Z,6.30
2023-03-22T01:48:42.561Z,9.50
2023-03-22T01:51:20.542Z,9.45
2023-03-22T01:53:57.529Z,9.82
2023-03-22T01:56:33.547Z,8.63
2023-03-22T01:59:01.229Z,6.88
2023-03-22T02:01:28.418Z,7.82
2023-03-22T02:04:19.519Z,9.82
2023-03-22T02:06:54.509Z,7.50
2023-03-22T02:09:29.953Z,8.63
2023-03-22T02:12:24.526Z,11.02
2023-03-22T02:15:13.010Z,8.55
2023-03-22T02:18:06.519Z,10.02
2023-03-22T02:21:12.898Z,9.52
2023-03-22T02:24:16.549Z,9.05
2023-03-22T02:27:11.562Z,8.68
2023-03-22T02:29:56.642Z,8.73
2023-03-22T02:33:12.573Z,9.20
2023-03-22T02:36:00.523Z,5.88
2023-03-22T02:38:49.070Z,7.88
2023-03-22T02:41:34.569Z,8.77
2023-03-22T02:44:18.612Z,8.45
2023-03-22T02:47:14.502Z,7.40
2023-03-22T02:49:56.608Z,7.50
2023-03-22T02:52:40.552Z,6.53
2023-03-22T02:55:30.474Z,7.75
2023-03-22T02:58:06.887Z,8.63
2023-03-22T03:00:42.893Z,8.65
2023-03-22T03:03:21.595Z,8.35
2023-03-22T03:05:55.007Z,6.85
2023-03-22T03:08:42.556Z,9.85
2023-03-22T03:11:10.204Z,6.60
2023-03-22T03:13:43.582Z,9.88
2023-03-22T03:16:13.399Z,9.25
2023-03-22T03:18:57.544Z,8.38
2023-03-22T03:21:54.487Z,8.88
2023-03-22T03:24:36.526Z,9.02
2023-03-22T03:27:20.503Z,11.82
2023-03-22T03:30:08.547Z,8.50
2023-03-22T03:32:42.079Z,13.15
2023-03-22T03:35:28.575Z,9.48
2023-03-22T03:38:16.567Z,11.00
2023-03-22T03:40:54.525Z,9.90
2023-03-22T03:43:22.991Z,10.65
2023-03-22T03:45:51.985Z,11.95
2023-03-22T03:48:28.534Z,9.30
2023-03-22T03:50:57.541Z,12.73
2023-03-22T03:53:30.570Z,13.70
2023-03-22T03:56:03.586Z,15.00
2023-03-22T03:58:37.549Z,9.43
2023-03-22T04:01:04.307Z,13.32
2023-03-22T04:03:38.548Z,12.23
2023-03-22T04:06:05.690Z,15.45
2023-03-22T04:08:45.651Z,14.63
2023-03-22T04:11:18.671Z,14.15
2023-03-22T04:13:51.700Z,13.73
2023-03-22T04:16:18.372Z,13.57
2023-03-22T04:18:44.963Z,13.05
2023-03-22T04:21:18.623Z,13.38
2023-03-22T04:23:46.915Z,14.10
2023-03-22T04:26:20.634Z,12.07
2023-03-22T04:28:47.279Z,11.93
2023-03-22T04:31:20.664Z,15.90
2023-03-22T04:33:47.418Z,11.57
2023-03-22T04:36:24.544Z,17.50
2023-03-22T04:38:52.014Z,13.20
2023-03-22T04:41:25.588Z,14.30
2023-03-22T04:43:52.299Z,12.85
2023-03-22T04:46:27.693Z,12.05
2023-03-22T04:48:54.332Z,13.32
2023-03-22T04:51:27.612Z,14.07
2023-03-22T04:53:54.812Z,12.00
2023-03-22T04:56:28.650Z,10.57
2023-03-22T04:58:55.454Z,11.70
2023-03-22T05:01:22.150Z,14.88
2023-03-22T05:03:55.553Z,9.68
2023-03-22T05:06:22.487Z,12.80
2023-03-22T05:08:55.576Z,10.70
2023-03-22T05:11:24.291Z,10.98
2023-03-22T05:13:57.632Z,11.15
2023-03-22T05:16:25.411Z,11.20
2023-03-22T05:18:54.826Z,9.57
2023-03-22T05:21:34.604Z,12.90
2023-03-22T05:24:07.607Z,11.27
2023-03-22T05:26:38.127Z,11.40
2023-03-22T05:29:11.586Z,10.18
2023-03-22T05:31:44.584Z,9.13
2023-03-22T05:34:11.243Z,10.98
2023-03-22T05:36:44.602Z,9.40
2023-03-22T05:39:11.345Z,9.73
2023-03-22T05:41:44.589Z,9.75
2023-03-22T05:44:11.255Z,8.68
2023-03-22T05:46:44.605Z,9.10
2023-03-22T05:49:12.249Z,8.73
2023-03-22T05:51:48.623Z,7.75
2023-03-22T05:54:15.470Z,9.43
2023-03-22T05:56:48.643Z,9.18
2023-03-22T05:59:15.220Z,13.38
2023-03-22T06:01:48.710Z,11.75
2023-03-22T06:04:15.567Z,8.10
2023-03-22T06:06:48.691Z,9.02
2023-03-22T06:09:35.597Z,9.80
2023-03-22T06:12:08.634Z,7.80
2023-03-22T06:14:35.362Z,5.90
2023-03-22T06:17:08.677Z,11.88
2023-03-22T06:19:41.654Z,9.13
2023-03-22T06:22:08.483Z,9.27
2023-03-22T06:24:41.640Z,7.47
2023-03-22T06:27:15.694Z,6.60
2023-03-22T06:29:42.268Z,13.57
2023-03-22T06:32:08.875Z,8.13
2023-03-22T06:34:41.717Z,9.38
2023-03-22T06:37:14.627Z,6.53
2023-03-22T06:39:47.673Z,5.43
2023-03-22T06:42:14.420Z,5.47
2023-03-22T06:44:50.721Z,7.10
2023-03-22T06:47:17.316Z,6.25
2023-03-22T06:49:50.667Z,8.43
2023-03-22T06:52:17.230Z,7.38
2023-03-22T06:54:50.606Z,6.15
2023-03-22T06:57:46.631Z,8.30
2023-03-22T07:00:20.689Z,8.13
2023-03-22T07:02:47.297Z,7.55
2023-03-22T07:05:20.735Z,8.90
2023-03-22T07:08:07.650Z,8.07
2023-03-22T07:10:40.866Z,6.70
2023-03-22T07:13:07.661Z,8.32
2023-03-22T07:15:41.715Z,7.13
2023-03-22T07:18:14.690Z,8.70
2023-03-22T07:20:42.607Z,8.77
2023-03-22T07:23:17.729Z,7.45
2023-03-22T07:25:45.457Z,7.60
2023-03-22T07:28:18.737Z,6.85
2023-03-22T07:30:45.331Z,6.57
2023-03-22T07:33:11.931Z,6.95
2023-03-22T07:35:46.701Z,5.82
2023-03-22T07:38:19.651Z,8.00
2023-03-22T07:40:46.481Z,5.88
2023-03-22T07:43:19.661Z,4.63
2023-03-22T07:45:46.541Z,5.95
2023-03-22T07:48:21.825Z,8.85
2023-03-22T07:50:49.363Z,6.07
2023-03-22T07:53:22.730Z,4.72
2023-03-22T07:56:02.797Z,3.63
2023-03-22T07:58:29.480Z,10.27
2023-03-22T08:01:02.823Z,6.40
2023-03-22T08:03:30.036Z,9.25
2023-03-22T08:06:05.726Z,7.20
2023-03-22T08:08:52.780Z,7.40
2023-03-22T08:11:25.697Z,7.97
2023-03-22T08:13:52.487Z,7.78
2023-03-22T08:16:25.777Z,4.43
2023-03-22T08:18:52.495Z,4.28
2023-03-22T08:21:25.715Z,5.22
2023-03-22T08:23:52.440Z,6.57
2023-03-22T08:26:25.692Z,5.50
2023-03-22T08:28:58.745Z,5.00
2023-03-22T08:31:32.805Z,7.28
2023-03-22T08:33:59.533Z,5.30
2023-03-22T08:36:32.715Z,5.78
2023-03-22T08:38:59.523Z,4.63
2023-03-22T08:41:32.810Z,7.53
2023-03-22T08:44:05.765Z,4.20
2023-03-22T08:46:32.497Z,8.50
2023-03-22T08:49:07.738Z,3.92
2023-03-22T08:51:34.477Z,5.68
2023-03-22T08:54:08.709Z,6.18
2023-03-22T08:56:38.392Z,7.20
2023-03-22T08:59:13.780Z,6.75
2023-03-22T09:01:40.659Z,5.22
2023-03-22T09:04:13.822Z,6.80
2023-03-22T09:06:43.001Z,7.55
2023-03-22T09:09:22.773Z,5.95
2023-03-22T09:11:49.323Z,9.32
2023-03-22T09:14:22.721Z,9.02
2023-03-22T09:16:49.325Z,6.22
2023-03-22T09:19:22.677Z,7.35
2023-03-22T09:21:50.222Z,7.50
2023-03-22T09:24:23.778Z,9.45
2023-03-22T09:26:56.747Z,5.90
2023-03-22T09:29:23.354Z,9.02
2023-03-22T09:31:56.779Z,10.90
2023-03-22T09:34:23.332Z,6.07
2023-03-22T09:36:58.504Z,6.70
2023-03-22T09:39:25.247Z,6.65
2023-03-22T09:42:02.742Z,6.78
2023-03-22T09:44:34.610Z,8.95
2023-03-22T09:47:10.783Z,6.45
2023-03-22T09:49:53.727Z,6.07
2023-03-22T09:52:21.843Z,8.55
2023-03-22T09:54:55.771Z,7.32
2023-03-22T09:57:43.925Z,17.42
2023-03-22T10:00:42.776Z,7.55
2023-03-22T10:03:43.793Z,5.57
2023-03-22T10:06:10.392Z,4.45
2023-03-22T10:09:20.766Z,6.07
2023-03-22T10:12:07.831Z,6.43
2023-03-22T10:14:47.785Z,8.25
2023-03-22T10:17:25.668Z,5.60
2023-03-22T10:20:07.798Z,9.32
2023-03-22T10:22:51.624Z,5.75
2023-03-22T10:25:30.736Z,4.97
2023-03-22T10:28:03.744Z,7.68
2023-03-22T10:30:44.813Z,7.97
2023-03-22T10:33:32.798Z,8.60
2023-03-22T10:36:07.816Z,5.60
2023-03-22T10:38:48.812Z,8.48
2023-03-22T10:41:18.779Z,6.00
2023-03-22T10:43:56.803Z,6.82
2023-03-22T10:46:33.829Z,6.63
2023-03-22T10:49:01.825Z,6.40
2023-03-22T10:51:40.753Z,6.00
2023-03-22T10:54:13.565Z,8.00
2023-03-22T10:56:46.742Z,5.25
2023-03-22T10:59:41.967Z,6.68
2023-03-22T11:02:36.884Z,6.32
2023-03-22T11:05:07.199Z,8.15
2023-03-22T11:07:41.744Z,4.32
2023-03-22T11:10:33.829Z,8.27
2023-03-22T11:13:15.839Z,7.00
2023-03-22T11:15:51.829Z,6.05
2023-03-22T11:18:25.905Z,6.97
2023-03-22T11:21:04.635Z,4.75
2023-03-22T11:23:40.804Z,7.65
2023-03-22T11:26:17.809Z,5.90
2023-03-22T11:28:57.783Z,4.75
2023-03-22T11:31:26.114Z,7.35
2023-03-22T11:34:04.824Z,5.45
2023-03-22T11:36:31.463Z,6.57
2023-03-22T11:39:06.890Z,9.43
2023-03-22T11:41:43.806Z,5.72
2023-03-22T11:44:14.465Z,5.90
2023-03-22T11:46:56.827Z,6.65
2023-03-22T11:49:33.863Z,5.72
2023-03-22T11:52:16.935Z,4.95
2023-03-22T11:54:52.855Z,8.15
2023-03-22T11:57:31.928Z,7.80
2023-03-22T12:00:20.097Z,6.93
2023-03-22T12:03:12.935Z,8.00
2023-03-22T12:05:51.035Z,6.85
2023-03-22T12:09:02.857Z,5.38
2023-03-22T12:11:55.796Z,8.85
2023-03-22T12:14:34.700Z,4.18
2023-03-22T12:17:23.814Z,8.55
2023-03-22T12:20:04.851Z,7.93
2023-03-22T12:22:43.799Z,5.00
2023-03-22T12:25:25.822Z,10.35
2023-03-22T12:27:59.391Z,4.88
2023-03-22T12:30:42.643Z,7.78
2023-03-22T12:33:23.148Z,5.72
2023-03-22T12:36:01.993Z,5.32
2023-03-22T12:38:44.814Z,5.22
2023-03-22T12:41:22.864Z,3.63
2023-03-22T12:43:56.061Z,8.85
2023-03-22T12:46:31.903Z,6.70
2023-03-22T12:49:11.749Z,7.95
2023-03-22T12:51:44.815Z,7.30
2023-03-22T12:54:14.169Z,5.53
2023-03-22T12:56:51.830Z,8.32
2023-03-22T12:59:29.905Z,4.75
2023-03-22T13:02:23.855Z,5.20
2023-03-22T13:04:54.517Z,8.27
2023-03-22T13:07:58.892Z,5.85
2023-03-22T13:10:45.946Z,5.05
2023-03-22T13:13:21.873Z,6.88
2023-03-22T13:16:19.916Z,10.45
2023-03-22T13:18:55.894Z,4.53
2023-03-22T13:21:32.915Z,9.75
2023-03-22T13:24:21.896Z,6.22
2023-03-22T13:26:58.598Z,4.72
2023-03-22T13:29:44.889Z,6.40
2023-03-22T13:32:30.535Z,5.95
2023-03-22T13:35:03.953Z,5.78
2023-03-22T13:37:37.647Z,6.53
2023-03-22T13:40:36.844Z,7.30
2023-03-22T13:43:27.848Z,7.53
2023-03-22T13:46:09.738Z,6.25
2023-03-22T13:48:54.930Z,5.00
2023-03-22T13:51:25.786Z,5.25
2023-03-22T13:54:07.864Z,8.00
2023-03-22T13:56:53.022Z,4.53
2023-03-22T13:59:37.885Z,5.97
2023-03-22T14:02:31.037Z,7.03
2023-03-22T14:05:03.947Z,3.75
2023-03-22T14:07:53.217Z,3.28
2023-03-22T14:10:34.854Z,5.38
2023-03-22T14:13:17.920Z,6.30
2023-03-22T14:16:04.044Z,5.90
2023-03-22T14:18:32.753Z,8.65
2023-03-22T14:21:28.020Z,6.18
2023-03-22T14:52:43.086Z,5.60
2023-03-22T14:55:18.362Z,5.65
2023-03-22T14:58:03.062Z,8.68
2023-03-22T15:00:31.511Z,4.90
2023-03-22T15:03:12.985Z,5.70
2023-03-22T15:05:43.280Z,4.82
2023-03-22T15:08:32.236Z,8.43
2023-03-22T15:11:16.103Z,4.57
2023-03-22T15:13:51.692Z,5.43
2023-03-22T15:16:23.319Z,5.57
2023-03-22T15:19:02.133Z,5.88
2023-03-22T15:21:31.750Z,6.35
2023-03-22T15:26:59.189Z,3.10
2023-03-22T15:29:35.166Z,6.53
2023-03-22T15:32:13.358Z,5.85
2023-03-22T15:37:49.702Z,6.22
2023-03-22T15:40:49.234Z,2.80
2023-03-22T15:43:38.166Z,5.32
2023-03-22T15:46:19.775Z,5.35
2023-03-22T15:49:12.191Z,4.93
2023-03-22T15:51:49.154Z,4.22
2023-03-22T15:54:35.121Z,4.05
2023-03-22T15:58:04.617Z,5.63
2023-03-22T16:03:49.299Z,3.42
2023-03-22T16:06:17.398Z,3.58
2023-03-22T16:08:51.214Z,6.45
2023-03-22T16:11:21.329Z,7.63
2023-03-22T16:13:55.314Z,7.70
2023-03-22T16:16:35.695Z,4.28
2023-03-22T16:19:18.975Z,7.68
2023-03-22T16:21:46.480Z,6.00
2023-03-22T16:24:20.090Z,5.82
2023-03-22T16:27:11.215Z,4.30
2023-03-22T16:29:45.095Z,3.92
2023-03-22T16:32:29.562Z,3.70
2023-03-22T16:35:06.393Z,4.18
2023-03-22T16:37:42.191Z,2.78
2023-03-22T16:40:22.546Z,5.95
2023-03-22T16:42:53.047Z,5.13
2023-03-22T16:45:35.124Z,6.97
2023-03-22T16:48:02.740Z,4.15
2023-03-22T16:50:42.380Z,6.47
2023-03-22T16:53:28.414Z,4.68
2023-03-22T16:56:04.191Z,3.97
2023-03-22T16:58:34.240Z,4.72
2023-03-22T17:01:10.154Z,3.92
2023-03-22T17:03:37.661Z,5.13
2023-03-22T17:06:17.236Z,6.32
2023-03-22T17:08:51.238Z,7.63
2023-03-22T17:11:28.360Z,7.93
2023-03-22T17:14:11.368Z,6.75
2023-03-22T17:16:48.313Z,5.05
2023-03-22T17:19:19.573Z,3.80
2023-03-22T17:21:53.349Z,6.20
2023-03-22T17:24:28.231Z,5.78
2023-03-22T17:27:15.271Z,4.38
2023-03-22T17:29:51.763Z,4.13
2023-03-22T17:32:39.492Z,6.22
2023-03-22T17:35:17.220Z,6.00
2023-03-22T17:37:49.344Z,5.43
2023-03-22T17:43:42.378Z,7.18
2023-03-22T17:46:52.371Z,7.28
2023-03-22T17:49:04.163Z,5.13
2023-03-22T17:51:40.161Z,5.82
2023-03-22T17:54:48.886Z,7.00
2023-03-22T17:57:34.784Z,7.00
2023-03-22T17:59:57.847Z,8.05
2023-03-22T18:02:38.567Z,6.00
2023-03-22T18:08:24.595Z,4.25
2023-03-22T18:10:49.687Z,7.10
2023-03-22T18:13:25.418Z,5.63
2023-03-22T18:15:55.441Z,7.00
2023-03-22T18:18:31.297Z,4.40
2023-03-22T18:21:10.266Z,4.95
2023-03-22T18:23:48.359Z,5.75
2023-03-22T18:26:29.625Z,5.88
2023-03-22T18:29:05.312Z,6.03
2023-03-22T18:31:35.741Z,8.07
2023-03-22T18:34:10.292Z,4.40
2023-03-22T18:36:45.225Z,6.78
2023-03-22T18:40:04.603Z,4.85
2023-03-22T18:42:19.388Z,5.50
2023-03-22T18:44:55.307Z,4.78
2023-03-22T18:47:22.884Z,5.57
2023-03-22T18:50:02.283Z,5.30
2023-03-22T18:52:48.927Z,6.60
2023-03-22T18:55:29.968Z,6.97
2023-03-22T18:58:10.188Z,6.05
2023-03-22T19:00:46.247Z,5.38
2023-03-22T19:03:13.854Z,4.40
2023-03-22T19:05:48.930Z,6.75
2023-03-22T19:08:27.889Z,4.78
2023-03-22T19:19:21.960Z,4.93
2023-03-22T19:22:40.846Z,5.13
2023-03-22T19:43:41.094Z,5.03
2023-03-22T19:46:08.988Z,7.45
2023-03-22T19:48:43.680Z,6.65
2023-03-22T19:51:11.081Z,6.63
2023-03-22T19:54:18.643Z,9.45
2023-03-22T19:56:41.610Z,12.93
2023-03-22T19:59:17.002Z,8.20
2023-03-22T20:01:45.025Z,4.43
2023-03-22T20:04:19.509Z,8.32
2023-03-22T20:06:55.108Z,9.07
2023-03-22T20:09:29.362Z,7.32
2023-03-22T20:12:03.368Z,6.07
2023-03-22T20:14:37.502Z,5.82
2023-03-22T20:17:06.913Z,8.68
2023-03-22T20:19:43.196Z,7.72
2023-03-22T20:22:16.425Z,6.30
2023-03-22T20:24:44.109Z,9.13
2023-03-22T20:27:18.306Z,6.60
2023-03-22T20:29:45.222Z,6.35
2023-03-22T20:32:19.299Z,7.40
2023-03-22T20:34:46.298Z,7.30
2023-03-22T20:37:29.512Z,6.70
2023-03-22T20:39:56.784Z,6.60
2023-03-22T20:42:38.368Z,6.47
2023-03-22T20:45:12.543Z,6.65
2023-03-22T20:47:46.394Z,7.15
2023-03-22T20:50:21.241Z,8.40
2023-03-22T20:52:48.433Z,7.60
2023-03-22T20:55:25.204Z,6.78
2023-03-22T20:57:53.012Z,8.43
2023-03-22T21:00:28.385Z,8.80
2023-03-22T21:02:56.478Z,7.22
2023-03-22T21:05:30.240Z,8.68
2023-03-22T21:07:57.527Z,7.85
2023-03-22T21:10:31.289Z,8.02
2023-03-22T21:12:58.013Z,10.73
2023-03-22T21:15:31.214Z,10.10
2023-03-22T21:18:05.250Z,9.30
2023-03-22T21:20:39.322Z,8.77
2023-03-22T21:23:06.053Z,10.57
2023-03-22T21:25:33.057Z,9.23
2023-03-22T21:28:06.261Z,11.38
2023-03-22T21:30:34.217Z,11.48
2023-03-22T21:33:08.268Z,8.68
2023-03-22T21:35:35.933Z,8.93
2023-03-22T21:38:10.766Z,8.68
2023-03-22T21:40:38.271Z,9.73
2023-03-22T21:43:25.495Z,10.23
2023-03-22T21:46:11.007Z,8.82
2023-03-22T21:48:57.411Z,9.38
2023-03-22T21:51:28.874Z,8.95
2023-03-22T21:54:03.327Z,11.73
2023-03-22T21:56:38.631Z,7.88
2023-03-22T21:59:08.350Z,9.93
2023-03-22T22:01:45.898Z,10.43
2023-03-22T22:04:20.323Z,8.68
2023-03-22T22:06:54.748Z,10.50
2023-03-22T22:09:29.528Z,10.88
2023-03-22T22:12:03.640Z,6.93
2023-03-22T22:14:31.925Z,8.25
2023-03-22T22:17:05.408Z,10.63
2023-03-22T22:19:32.740Z,8.55
2023-03-22T22:22:07.340Z,9.07
2023-03-22T22:24:42.201Z,8.40
2023-03-22T22:27:16.509Z,8.52
2023-03-22T22:29:43.744Z,8.95
2023-03-22T22:32:18.496Z,8.80
2023-03-22T22:34:46.078Z,9.40
2023-03-22T22:37:19.541Z,9.13
2023-03-22T22:39:47.871Z,8.27
2023-03-22T22:42:28.396Z,8.82
2023-03-22T22:44:55.233Z,12.32
2023-03-22T22:47:29.481Z,11.38
2023-03-22T22:49:57.448Z,8.73
2023-03-22T22:52:24.589Z,10.68
2023-03-22T22:54:58.465Z,8.13
2023-03-22T22:57:25.667Z,9.27
2023-03-22T22:59:59.381Z,9.75
2023-03-22T23:02:29.105Z,8.07
2023-03-22T23:05:09.442Z,9.40
2023-03-22T23:07:37.414Z,7.90
2023-03-22T23:10:12.624Z,9.02
2023-03-22T23:12:41.161Z,9.77
2023-03-22T23:15:27.093Z,8.18
2023-03-22T23:18:03.172Z,7.85
2023-03-22T23:20:45.736Z,6.07
2023-03-22T23:23:19.298Z,6.75
2023-03-22T23:26:00.531Z,8.63
2023-03-22T23:28:34.008Z,9.02
2023-03-22T23:31:15.633Z,7.95
2023-03-22T23:33:44.294Z,9.95
2023-03-22T23:36:26.616Z,8.93
2023-03-22T23:38:56.462Z,7.53
2023-03-22T23:41:32.562Z,7.80
2023-03-22T23:44:06.695Z,7.32
2023-03-22T23:46:40.873Z,8.48
2023-03-22T23:49:08.990Z,6.78
2023-03-22T23:51:43.611Z,6.57
2023-03-22T23:54:11.215Z,7.18
2023-03-22T23:56:44.346Z,9.15
2023-03-22T23:59:12.198Z,7.00
